Time;durP1;ratioP1;P1;durP2;ratioP2;P2;SDS_P1;SDS_P2;PMS_P1;PMS_P2;Temp;Humidity;BMP_temperature;BMP_pressure;BME280_temperature;BME280_humidity;BME280_pressure;Samples;Min_cycle;Max_cycle;Signal;HPM_P1;HPM_P2
2021/10/27 00:00:57;;;;;;;3.70;3.10;;;9.80;99.90;;;;;;5053165;28;20593;-74
2021/10/27 00:03:24;;;;;;;3.50;2.50;;;9.80;99.90;;;;;;5052004;28;20261;-74
2021/10/27 00:05:51;;;;;;;2.90;2.60;;;9.90;99.90;;;;;;5052412;28;20257;-75
2021/10/27 00:08:18;;;;;;;4.10;3.40;;;10.00;99.90;;;;;;5052362;28;20715;-73
2021/10/27 00:10:44;;;;;;;3.20;2.83;;;10.00;99.90;;;;;;5052195;28;20329;-75
2021/10/27 00:13:12;;;;;;;4.97;2.80;;;10.10;99.90;;;;;;5054658;28;20294;-76
2021/10/27 00:15:40;;;;;;;2.90;2.60;;;10.00;99.90;;;;;;5056833;28;20207;-76
2021/10/27 00:18:07;;;;;;;3.35;2.15;;;10.10;99.90;;;;;;5056602;28;20314;-75
2021/10/27 00:20:34;;;;;;;4.10;2.55;;;9.90;99.90;;;;;;5056508;28;20253;-75
2021/10/27 00:23:01;;;;;;;4.03;3.05;;;9.90;99.90;;;;;;5056271;28;20257;-75
2021/10/27 00:25:28;;;;;;;4.70;2.92;;;10.00;99.90;;;;;;5055687;28;20246;-76
2021/10/27 00:27:55;;;;;;;4.78;2.90;;;9.90;99.90;;;;;;5056274;28;20199;-76
2021/10/27 00:30:22;;;;;;;4.53;2.70;;;9.90;99.90;;;;;;5055800;28;20223;-76
2021/10/27 00:32:51;;;;;;;3.78;2.33;;;9.90;99.90;;;;;;5055583;28;20639;-76
2021/10/27 00:35:17;;;;;;;3.28;2.88;;;9.90;99.90;;;;;;5055801;28;20261;-76
2021/10/27 00:37:44;;;;;;;3.08;2.30;;;9.90;99.90;;;;;;5055705;28;20227;-74
2021/10/27 00:40:13;;;;;;;3.30;2.90;;;9.80;99.90;;;;;;5057028;28;20310;-72
2021/10/27 00:42:39;;;;;;;3.63;2.80;;;9.80;99.90;;;;;;5057133;28;20292;-72
2021/10/27 00:45:07;;;;;;;4.43;2.92;;;9.80;99.90;;;;;;5057000;28;20235;-72
2021/10/27 00:47:34;;;;;;;3.25;2.85;;;9.90;99.90;;;;;;5057032;28;20207;-72
2021/10/27 00:50:04;;;;;;;5.50;3.55;;;9.90;99.90;;;;;;5057155;28;20219;-73
2021/10/27 00:52:31;;;;;;;7.05;3.53;;;9.70;99.90;;;;;;5057208;28;20200;-72
2021/10/27 00:54:58;;;;;;;4.22;3.45;;;9.50;99.90;;;;;;5057150;28;20203;-72
2021/10/27 00:57:25;;;;;;;4.65;3.15;;;9.40;99.90;;;;;;5056985;28;20227;-72
2021/10/27 00:59:52;;;;;;;6.50;3.78;;;9.30;99.90;;;;;;5056947;28;20310;-72
2021/10/27 01:02:20;;;;;;;3.80;3.22;;;9.10;99.90;;;;;;5056970;28;20203;-72
2021/10/27 01:04:47;;;;;;;5.88;3.58;;;9.10;99.90;;;;;;5057121;28;20207;-72
2021/10/27 01:07:16;;;;;;;5.30;3.90;;;9.20;99.90;;;;;;5056794;28;20339;-72
2021/10/27 01:09:43;;;;;;;3.45;2.60;;;9.30;99.90;;;;;;5056860;28;20653;-72
2021/10/27 01:12:10;;;;;;;5.63;3.78;;;9.40;99.90;;;;;;5057103;28;20576;-72
2021/10/27 01:14:39;;;;;;;3.83;3.45;;;9.50;99.90;;;;;;5056714;28;20239;-72
2021/10/27 01:17:07;;;;;;;4.93;3.65;;;9.40;99.90;;;;;;5056453;28;20229;-72
2021/10/27 01:19:44;;;;;;;5.32;4.03;;;9.40;99.90;;;;;;5056664;28;20200;-72
2021/10/27 01:22:11;;;;;;;3.45;3.00;;;9.40;99.90;;;;;;5056740;28;20238;-72
2021/10/27 01:24:38;;;;;;;4.32;3.25;;;9.40;99.90;;;;;;5056337;28;20298;-72
2021/10/27 01:27:05;;;;;;;4.78;3.70;;;9.40;99.90;;;;;;5056590;28;20290;-72
2021/10/27 01:29:33;;;;;;;4.78;3.35;;;9.20;99.90;;;;;;5056642;28;20206;-72
2021/10/27 01:31:59;;;;;;;4.68;3.17;;;9.00;99.90;;;;;;5056573;28;20298;-72
2021/10/27 01:34:26;;;;;;;4.20;3.22;;;9.00;99.90;;;;;;5056733;28;20206;-72
2021/10/27 01:36:54;;;;;;;5.57;3.22;;;9.10;99.90;;;;;;5056558;28;20223;-72
2021/10/27 01:39:21;;;;;;;4.50;3.28;;;9.20;99.90;;;;;;5056438;28;20294;-72
2021/10/27 01:41:49;;;;;;;6.20;3.97;;;9.30;99.90;;;;;;5055908;28;20228;-72
2021/10/27 01:44:16;;;;;;;4.45;3.10;;;9.30;99.90;;;;;;5055910;28;20210;-73
2021/10/27 01:46:43;;;;;;;4.35;3.88;;;9.20;99.90;;;;;;5056093;28;20239;-72
2021/10/27 01:49:11;;;;;;;4.13;3.00;;;9.00;99.90;;;;;;5055770;28;20295;-72
2021/10/27 01:51:39;;;;;;;3.42;3.13;;;9.00;99.90;;;;;;5055426;28;20230;-73
2021/10/27 01:54:07;;;;;;;4.60;3.60;;;9.00;99.90;;;;;;5056168;28;20293;-72
2021/10/27 01:56:34;;;;;;;4.03;3.63;;;9.10;99.90;;;;;;5056155;28;20203;-72
2021/10/27 01:59:01;;;;;;;4.07;3.67;;;9.20;99.90;;;;;;5057266;28;20294;-72
2021/10/27 02:01:28;;;;;;;3.80;2.85;;;9.10;99.90;;;;;;5055961;28;20223;-72
2021/10/27 02:03:55;;;;;;;4.65;3.20;;;8.90;99.90;;;;;;5056707;28;20208;-72
2021/10/27 02:06:22;;;;;;;6.10;2.90;;;8.90;99.90;;;;;;5056488;28;20266;-72
2021/10/27 02:08:49;;;;;;;4.00;3.00;;;8.80;99.90;;;;;;5056049;28;20286;-72
2021/10/27 02:11:17;;;;;;;6.32;3.10;;;8.80;99.90;;;;;;5056035;28;20714;-72
2021/10/27 02:13:44;;;;;;;4.30;3.28;;;8.90;99.90;;;;;;5057069;28;20203;-73
2021/10/27 02:16:11;;;;;;;4.63;3.55;;;9.00;99.90;;;;;;5056194;28;20311;-73
2021/10/27 02:18:38;;;;;;;5.03;3.30;;;9.00;99.90;;;;;;5056187;28;20591;-72
2021/10/27 02:21:05;;;;;;;5.45;3.80;;;9.00;99.90;;;;;;5055405;28;20566;-73
2021/10/27 02:23:32;;;;;;;5.72;4.07;;;8.80;99.90;;;;;;5055747;28;20239;-73
2021/10/27 02:25:59;;;;;;;4.65;4.10;;;8.80;99.90;;;;;;5055686;28;20286;-73
2021/10/27 02:28:27;;;;;;;6.00;3.95;;;8.70;99.90;;;;;;5055725;28;20286;-73
2021/10/27 02:30:54;;;;;;;5.72;3.85;;;8.70;99.90;;;;;;5055750;28;20228;-72
2021/10/27 02:33:21;;;;;;;5.40;4.05;;;8.70;99.90;;;;;;5055213;28;20210;-72
2021/10/27 02:35:47;;;;;;;4.63;3.63;;;8.60;99.90;;;;;;5054801;28;20737;-72
2021/10/27 02:38:15;;;;;;;6.15;4.13;;;8.50;99.90;;;;;;5055905;28;20318;-72
2021/10/27 02:40:42;;;;;;;7.40;3.85;;;8.70;99.90;;;;;;5055496;28;20591;-72
2021/10/27 02:43:08;;;;;;;5.43;4.35;;;8.70;99.90;;;;;;5055055;28;20286;-72
2021/10/27 02:45:37;;;;;;;4.75;3.78;;;8.70;99.90;;;;;;5055482;28;20207;-72
2021/10/27 02:48:04;;;;;;;8.35;4.50;;;8.60;99.90;;;;;;5054736;28;20231;-72
2021/10/27 02:50:31;;;;;;;6.65;4.65;;;8.70;99.90;;;;;;5054518;28;20223;-72
2021/10/27 02:52:57;;;;;;;6.60;4.45;;;8.70;99.90;;;;;;5054349;28;20209;-72
2021/10/27 02:55:24;;;;;;;6.70;4.38;;;8.70;99.90;;;;;;5054490;28;20299;-72
2021/10/27 02:57:51;;;;;;;5.03;4.15;;;8.70;99.90;;;;;;5054405;28;20318;-72
2021/10/27 03:00:18;;;;;;;6.15;4.50;;;8.70;99.90;;;;;;5054375;28;20227;-72
2021/10/27 03:02:46;;;;;;;5.75;4.70;;;8.60;99.90;;;;;;5054225;28;20294;-72
2021/10/27 03:05:13;;;;;;;6.78;4.90;;;8.50;99.90;;;;;;5054073;28;20294;-72
2021/10/27 03:07:40;;;;;;;6.30;4.35;;;8.60;99.90;;;;;;5053946;28;20200;-72
2021/10/27 03:10:08;;;;;;;7.00;4.65;;;8.60;99.90;;;;;;5054145;28;20314;-72
2021/10/27 03:12:35;;;;;;;5.05;4.03;;;8.60;99.90;;;;;;5053835;28;20218;-72
2021/10/27 03:15:01;;;;;;;6.00;4.28;;;8.60;99.90;;;;;;5053988;28;20203;-72
2021/10/27 03:17:28;;;;;;;6.45;4.32;;;8.70;99.90;;;;;;5054026;28;20315;-72
2021/10/27 03:19:56;;;;;;;7.10;4.50;;;8.80;99.90;;;;;;5053853;28;20257;-72
2021/10/27 03:22:23;;;;;;;7.53;5.22;;;8.80;99.90;;;;;;5053647;28;20246;-72
2021/10/27 03:24:50;;;;;;;4.75;3.60;;;8.90;99.90;;;;;;5053951;28;20220;-72
2021/10/27 03:27:17;;;;;;;5.90;4.15;;;8.80;99.90;;;;;;5054080;28;20730;-72
2021/10/27 03:29:44;;;;;;;7.47;4.53;;;8.70;99.90;;;;;;5054170;28;20203;-72
2021/10/27 03:32:13;;;;;;;4.90;4.40;;;8.70;99.90;;;;;;5054263;28;20203;-72
2021/10/27 03:34:40;;;;;;;6.85;4.85;;;8.70;99.90;;;;;;5054270;28;20207;-72
2021/10/27 03:37:09;;;;;;;5.95;4.50;;;8.50;99.90;;;;;;5054029;28;20203;-72
2021/10/27 03:39:36;;;;;;;6.78;4.63;;;8.40;99.90;;;;;;5054099;28;20200;-72
2021/10/27 03:42:03;;;;;;;5.07;3.58;;;8.30;99.90;;;;;;5053991;28;20314;-72
2021/10/27 03:44:30;;;;;;;5.40;4.55;;;8.20;99.90;;;;;;5053991;28;20243;-72
2021/10/27 03:46:57;;;;;;;5.85;4.25;;;8.30;99.90;;;;;;5052867;28;20226;-72
2021/10/27 03:49:23;;;;;;;10.07;5.85;;;8.30;99.90;;;;;;5054356;28;20290;-72
2021/10/27 03:51:50;;;;;;;6.25;4.30;;;8.30;99.90;;;;;;5053675;28;20310;-72
2021/10/27 03:54:19;;;;;;;8.15;4.65;;;8.40;99.90;;;;;;5053998;28;20597;-72
2021/10/27 03:56:46;;;;;;;5.85;4.45;;;8.50;99.90;;;;;;5053949;28;20310;-72
2021/10/27 03:59:15;;;;;;;8.18;5.18;;;8.50;99.90;;;;;;5053758;28;20693;-72
2021/10/27 04:01:42;;;;;;;5.80;4.07;;;8.50;99.90;;;;;;5054135;28;20277;-73
2021/10/27 04:04:08;;;;;;;6.13;4.40;;;8.50;99.90;;;;;;5053490;28;20295;-72
2021/10/27 04:06:35;;;;;;;5.25;4.10;;;8.30;99.90;;;;;;5053764;28;20203;-72
2021/10/27 04:09:03;;;;;;;6.55;4.00;;;8.20;99.90;;;;;;5053551;28;20203;-72
2021/10/27 04:11:31;;;;;;;5.93;4.05;;;8.10;99.90;;;;;;5053362;28;20277;-72
2021/10/27 04:13:59;;;;;;;6.50;5.03;;;8.10;99.90;;;;;;5053381;28;20206;-72
2021/10/27 04:16:25;;;;;;;5.03;4.50;;;7.90;99.90;;;;;;5053303;28;20261;-72
2021/10/27 04:18:52;;;;;;;10.50;5.68;;;7.80;99.90;;;;;;5053300;28;20227;-72
2021/10/27 04:21:19;;;;;;;8.35;5.35;;;7.90;99.90;;;;;;5052875;28;20567;-72
2021/10/27 04:23:46;;;;;;;7.75;5.35;;;8.00;99.90;;;;;;5053198;28;20301;-72
2021/10/27 04:26:13;;;;;;;6.57;5.00;;;8.10;99.90;;;;;;5053391;28;20246;-72
2021/10/27 04:28:41;;;;;;;9.70;5.60;;;8.20;99.90;;;;;;5053601;28;20626;-72
2021/10/27 04:31:08;;;;;;;5.50;4.88;;;8.00;99.90;;;;;;5053400;28;20310;-72
2021/10/27 04:33:34;;;;;;;8.02;4.75;;;7.90;99.90;;;;;;5053149;28;20203;-72
2021/10/27 04:36:02;;;;;;;6.35;4.90;;;7.80;99.90;;;;;;5053348;28;20294;-72
2021/10/27 04:38:29;;;;;;;5.88;4.47;;;7.90;99.90;;;;;;5053189;28;20223;-72
2021/10/27 04:40:56;;;;;;;5.07;4.32;;;8.00;99.90;;;;;;5053005;28;20313;-72
2021/10/27 04:43:23;;;;;;;7.43;4.72;;;8.00;99.90;;;;;;5053061;28;20294;-72
2021/10/27 04:45:52;;;;;;;5.90;4.65;;;8.10;99.90;;;;;;5053391;28;20238;-72
2021/10/27 04:48:18;;;;;;;7.15;4.75;;;8.20;99.90;;;;;;5053104;28;20287;-72
2021/10/27 04:50:46;;;;;;;8.38;5.32;;;8.20;99.90;;;;;;5053269;28;20323;-72
2021/10/27 04:53:16;;;;;;;6.07;4.80;;;8.30;99.90;;;;;;5053024;28;20207;-72
2021/10/27 04:55:43;;;;;;;7.03;5.22;;;8.30;99.90;;;;;;5053557;28;20298;-72
2021/10/27 04:58:10;;;;;;;6.55;4.50;;;8.20;99.90;;;;;;5053551;28;20224;-72
2021/10/27 05:00:37;;;;;;;8.02;5.38;;;8.00;99.90;;;;;;5056998;28;20227;-72
2021/10/27 05:03:05;;;;;;;7.75;5.10;;;7.80;99.90;;;;;;5056761;28;20207;-72
2021/10/27 05:05:35;;;;;;;8.52;5.35;;;7.70;99.90;;;;;;5056892;28;20210;-72
2021/10/27 05:08:03;;;;;;;7.22;5.25;;;7.60;99.90;;;;;;5056823;28;20253;-72
2021/10/27 05:10:30;;;;;;;9.23;4.82;;;7.60;99.90;;;;;;5056605;28;20586;-72
2021/10/27 05:12:56;;;;;;;7.95;5.55;;;7.50;99.90;;;;;;5056665;28;20206;-72
2021/10/27 05:15:23;;;;;;;6.57;5.00;;;7.40;99.90;;;;;;5056684;28;20628;-72
2021/10/27 05:17:50;;;;;;;6.25;4.88;;;7.40;99.90;;;;;;5056732;28;20565;-72
2021/10/27 05:20:18;;;;;;;8.68;5.30;;;7.60;99.90;;;;;;5056401;28;20228;-73
2021/10/27 05:22:45;;;;;;;7.15;4.97;;;7.70;99.90;;;;;;5056390;28;20207;-72
2021/10/27 05:25:12;;;;;;;8.50;4.57;;;7.80;99.90;;;;;;5056402;28;20632;-72
2021/10/27 05:27:39;;;;;;;8.25;5.32;;;7.70;99.90;;;;;;5056747;28;20200;-72
2021/10/27 05:30:07;;;;;;;9.60;4.90;;;7.70;99.90;;;;;;5056291;28;20636;-72
2021/10/27 05:32:34;;;;;;;5.72;4.43;;;7.50;99.90;;;;;;5056119;28;20290;-72
2021/10/27 05:35:01;;;;;;;7.13;5.35;;;7.40;99.90;;;;;;5056300;28;20204;-72
2021/10/27 05:37:29;;;;;;;8.45;5.28;;;7.50;99.90;;;;;;5056132;28;20239;-72
2021/10/27 05:39:56;;;;;;;10.60;6.38;;;7.40;99.90;;;;;;5055971;28;20314;-72
2021/10/27 05:42:27;;;;;;;7.35;5.50;;;7.50;99.90;;;;;;5056068;28;20602;-71
2021/10/27 05:44:56;;;;;;;10.73;6.03;;;7.40;99.90;;;;;;5055903;28;20211;-72
2021/10/27 05:47:23;;;;;;;9.23;6.35;;;7.40;99.90;;;;;;5055845;28;20239;-72
2021/10/27 05:49:52;;;;;;;7.85;5.72;;;7.40;99.90;;;;;;5055706;28;20310;-72
2021/10/27 05:55:18;;;;;;;8.07;5.57;;;7.30;99.90;;;;;;5033131;28;20202;-72
2021/10/27 05:57:45;;;;;;;11.05;6.00;;;7.30;99.90;;;;;;5056352;28;20218;-72
2021/10/27 06:00:13;;;;;;;7.47;5.88;;;7.20;99.90;;;;;;5055669;28;20237;-72
2021/10/27 06:02:40;;;;;;;9.88;5.78;;;7.20;99.90;;;;;;5055747;28;20261;-72
2021/10/27 06:05:08;;;;;;;8.10;6.07;;;7.10;99.90;;;;;;5055690;28;20203;-72
2021/10/27 06:07:35;;;;;;;9.48;6.57;;;7.30;99.90;;;;;;5055767;28;20703;-72
2021/10/27 06:10:04;;;;;;;6.72;5.40;;;7.40;99.90;;;;;;5054383;28;20223;-72
2021/10/27 06:12:31;;;;;;;8.00;5.75;;;7.30;99.90;;;;;;5055419;28;20290;-72
2021/10/27 06:14:58;;;;;;;10.73;5.80;;;7.30;99.90;;;;;;5055499;28;20569;-72
2021/10/27 06:17:25;;;;;;;9.30;5.72;;;7.30;99.90;;;;;;5055266;28;20295;-72
2021/10/27 06:19:54;;;;;;;9.20;5.85;;;7.40;99.90;;;;;;5055668;28;20261;-72
2021/10/27 06:22:22;;;;;;;7.53;5.90;;;7.40;99.90;;;;;;5055225;28;20213;-72
2021/10/27 06:24:49;;;;;;;8.77;5.88;;;7.50;99.90;;;;;;5055085;28;20211;-72
2021/10/27 06:27:17;;;;;;;7.78;6.10;;;7.50;99.90;;;;;;5055212;28;20273;-72
2021/10/27 06:29:47;;;;;;;10.85;6.60;;;7.60;99.90;;;;;;5055134;28;20250;-71
2021/10/27 06:32:24;;;;;;;7.68;5.82;;;7.60;99.90;;;;;;5055151;28;20225;-71
2021/10/27 06:34:53;;;;;;;7.38;5.90;;;7.70;99.90;;;;;;5055092;28;20225;-72
2021/10/27 06:37:36;;;;;;;9.57;6.53;;;7.70;99.90;;;;;;5055203;28;20305;-72
2021/10/27 06:48:18;;;;;;;9.25;6.10;;;7.80;99.90;;;;;;5055009;28;20776;-72
2021/10/27 06:50:45;;;;;;;8.88;6.50;;;7.80;99.90;;;;;;5055033;28;20219;-73
2021/10/27 06:53:12;;;;;;;9.63;6.43;;;7.90;99.90;;;;;;5054529;28;20706;-72
2021/10/27 06:55:40;;;;;;;9.52;6.75;;;8.10;99.90;;;;;;5054785;28;20239;-72
2021/10/27 06:58:09;;;;;;;9.93;7.45;;;8.20;99.90;;;;;;5055059;28;20277;-72
2021/10/27 07:00:39;;;;;;;8.48;6.05;;;8.30;99.90;;;;;;5054660;28;20223;-73
2021/10/27 07:06:08;;;;;;;8.88;6.72;;;8.30;99.90;;;;;;5054610;28;20194;-73
2021/10/27 07:16:49;;;;;;;8.43;6.90;;;8.20;99.90;;;;;;5054458;28;20285;-73
2021/10/27 07:19:16;;;;;;;9.50;7.30;;;8.20;99.90;;;;;;5054330;28;20265;-73
2021/10/27 07:21:43;;;;;;;15.07;8.27;;;8.20;99.90;;;;;;5051355;28;20594;-73
2021/10/27 07:24:10;;;;;;;11.95;8.07;;;8.20;99.90;;;;;;5055605;28;20219;-72
2021/10/27 07:26:38;;;;;;;8.93;7.85;;;8.20;99.90;;;;;;5052674;28;20207;-72
2021/10/27 07:29:06;;;;;;;9.88;7.57;;;8.20;99.90;;;;;;5052732;28;20235;-72
2021/10/27 07:31:34;;;;;;;10.40;7.95;;;8.10;99.90;;;;;;5052431;28;20227;-72
2021/10/27 07:34:06;;;;;;;10.65;7.93;;;8.10;99.90;;;;;;5053165;28;20203;-74
2021/10/27 07:39:51;;;;;;;9.80;8.30;;;8.10;99.90;;;;;;5053106;28;20218;-73
2021/10/27 07:42:15;;;;;;;10.05;8.30;;;8.10;99.90;;;;;;5053121;28;20202;-73
2021/10/27 07:44:45;;;;;;;10.80;7.05;;;8.00;99.90;;;;;;5052715;28;20290;-73
2021/10/27 07:47:12;;;;;;;12.23;8.90;;;8.00;99.90;;;;;;5052487;28;20235;-73
2021/10/27 07:49:39;;;;;;;10.45;7.60;;;8.10;99.90;;;;;;5053715;28;20206;-74
2021/10/27 07:52:07;;;;;;;8.73;7.20;;;8.10;99.90;;;;;;5053406;28;20627;-72
2021/10/27 07:54:34;;;;;;;12.02;7.40;;;8.10;99.90;;;;;;5053735;28;20207;-71
2021/10/27 07:57:01;;;;;;;10.02;7.43;;;8.10;99.90;;;;;;5053573;28;20293;-71
2021/10/27 07:59:28;;;;;;;10.90;7.38;;;8.10;99.90;;;;;;5053423;28;20231;-71
2021/10/27 08:01:56;;;;;;;9.50;7.25;;;8.30;99.90;;;;;;5053321;28;20226;-71
2021/10/27 08:04:23;;;;;;;9.38;8.05;;;8.50;99.90;;;;;;5053495;28;20273;-71
2021/10/27 08:06:51;;;;;;;9.40;7.70;;;8.60;99.90;;;;;;5053456;28;20295;-71
2021/10/27 08:09:19;;;;;;;9.77;7.40;;;8.70;99.90;;;;;;5053430;28;20237;-71
2021/10/27 08:11:45;;;;;;;12.40;7.70;;;8.70;99.90;;;;;;5053059;28;20226;-71
2021/10/27 08:14:12;;;;;;;12.27;8.35;;;8.70;99.90;;;;;;5053409;28;20230;-71
2021/10/27 08:16:39;;;;;;;12.15;8.13;;;8.60;99.90;;;;;;5053195;28;20743;-72
2021/10/27 08:19:07;;;;;;;10.63;7.53;;;8.70;99.90;;;;;;5053124;28;20311;-72
2021/10/27 08:21:34;;;;;;;11.45;8.20;;;8.60;99.90;;;;;;5053201;28;20219;-71
2021/10/27 08:24:02;;;;;;;12.57;8.57;;;8.60;99.90;;;;;;5053227;28;20221;-71
2021/10/27 08:26:29;;;;;;;11.60;8.55;;;8.50;99.90;;;;;;5053264;28;20214;-71
2021/10/27 08:28:58;;;;;;;17.77;9.30;;;8.50;99.90;;;;;;5053270;28;20199;-71
2021/10/27 08:31:35;;;;;;;13.57;9.27;;;8.40;99.90;;;;;;5052790;28;20309;-71
2021/10/27 08:34:09;;;;;;;12.25;8.85;;;8.40;99.90;;;;;;5055290;28;20203;-71
2021/10/27 08:36:38;;;;;;;12.45;8.52;;;8.40;99.90;;;;;;5057153;28;20213;-71
2021/10/27 08:39:05;;;;;;;14.70;9.43;;;8.50;99.90;;;;;;5056810;28;20727;-71
2021/10/27 08:41:32;;;;;;;10.88;8.40;;;8.60;99.90;;;;;;5056611;28;20705;-72
2021/10/27 08:44:00;;;;;;;13.93;9.30;;;8.60;99.90;;;;;;5057168;28;20207;-72
2021/10/27 08:46:29;;;;;;;14.45;9.63;;;8.60;99.90;;;;;;5056706;28;20226;-71
2021/10/27 08:48:57;;;;;;;12.85;9.70;;;8.70;99.90;;;;;;5057176;28;20238;-72
2021/10/27 08:51:27;;;;;;;13.13;8.82;;;8.70;99.90;;;;;;5056873;28;20219;-72
2021/10/27 08:53:56;;;;;;;16.25;9.70;;;8.80;99.90;;;;;;5056963;28;20658;-72
2021/10/27 08:56:24;;;;;;;15.88;10.52;;;8.80;99.90;;;;;;5056965;28;20239;-72
2021/10/27 08:58:55;;;;;;;12.18;9.25;;;8.80;99.90;;;;;;5057163;28;20246;-72
2021/10/27 09:01:31;;;;;;;14.00;9.63;;;8.90;99.90;;;;;;5057120;28;20273;-72
2021/10/27 09:04:13;;;;;;;12.70;9.65;;;8.90;99.90;;;;;;5057346;28;20215;-72
2021/10/27 09:06:45;;;;;;;12.68;9.80;;;9.00;99.90;;;;;;5057359;28;20261;-72
2021/10/27 09:09:46;;;;;;;13.02;9.38;;;9.10;99.90;;;;;;5057117;28;20626;-72
2021/10/27 09:35:44;;;;;;;13.77;9.80;;;9.90;99.90;;;;;;5056181;28;20884;-72
2021/10/27 09:38:39;;;;;;;14.20;10.40;;;10.00;99.90;;;;;;5055828;28;20657;-72
2021/10/27 09:44:30;;;;;;;14.05;9.25;;;9.90;99.90;;;;;;5056065;28;20195;-72
2021/10/27 09:47:37;;;;;;;15.48;10.15;;;9.80;99.90;;;;;;5055838;28;20231;-72
2021/10/27 09:55:59;;;;;;;16.10;9.98;;;10.00;99.90;;;;;;5055999;28;20202;-72
2021/10/27 10:04:13;;;;;;;13.02;8.93;;;10.60;99.90;;;;;;5055641;28;20719;-72
2021/10/27 10:06:41;;;;;;;12.95;9.25;;;10.50;99.90;;;;;;5055578;28;20234;-71
2021/10/27 10:09:09;;;;;;;14.10;9.25;;;10.50;99.90;;;;;;5055696;28;20215;-71
2021/10/27 10:11:36;;;;;;;12.65;8.30;;;10.60;99.90;;;;;;5055289;28;20313;-72
2021/10/27 10:14:05;;;;;;;13.70;9.45;;;10.60;99.90;;;;;;5055287;28;20204;-72
2021/10/27 10:16:38;;;;;;;11.80;8.48;;;10.70;99.90;;;;;;5055261;28;20207;-72
2021/10/27 10:19:08;;;;;;;10.07;8.98;;;10.90;99.90;;;;;;5055259;28;20211;-72
2021/10/27 10:21:36;;;;;;;11.07;8.35;;;11.00;99.90;;;;;;5055053;28;20227;-72
2021/10/27 10:24:33;;;;;;;12.75;8.82;;;11.10;99.90;;;;;;5055001;28;20211;-72
2021/10/27 10:27:03;;;;;;;9.48;7.95;;;11.20;99.90;;;;;;5055185;28;20217;-72
2021/10/27 10:29:55;;;;;;;11.50;7.93;;;11.30;99.90;;;;;;5055145;28;20265;-72
2021/10/27 10:32:33;;;;;;;10.88;7.75;;;11.50;99.90;;;;;;5054947;28;20699;-72
2021/10/27 10:35:08;;;;;;;11.40;8.43;;;11.60;99.90;;;;;;5055295;28;20208;-72
2021/10/27 10:37:40;;;;;;;10.45;8.25;;;11.70;99.90;;;;;;5054930;28;20207;-71
2021/10/27 10:40:44;;;;;;;8.45;7.07;;;11.80;99.90;;;;;;5054480;28;20743;-72
2021/10/27 10:43:18;;;;;;;12.65;9.30;;;11.90;99.90;;;;;;5054739;28;20207;-71
2021/10/27 10:45:56;;;;;;;14.95;9.30;;;12.00;99.90;;;;;;5054858;28;20218;-72
2021/10/27 11:03:50;;;;;;;10.25;7.50;;;12.50;99.90;;;;;;5047117;28;20199;-72
2021/10/27 11:23:41;;;;;;;10.23;6.78;;;13.40;99.90;;;;;;5070526;28;20665;-71
2021/10/27 11:37:36;;;;;;;6.95;5.90;;;13.80;99.90;;;;;;5070517;28;20770;-72
2021/10/27 11:40:12;;;;;;;6.75;6.15;;;13.90;99.90;;;;;;5070300;28;20226;-72
2021/10/27 11:42:47;;;;;;;7.55;5.30;;;13.90;99.90;;;;;;5070198;28;20207;-72
2021/10/27 11:45:21;;;;;;;11.10;5.40;;;14.00;99.90;;;;;;5070287;28;20203;-72
2021/10/27 11:47:52;;;;;;;5.72;4.63;;;14.00;99.90;;;;;;5070148;28;20614;-72
2021/10/27 11:50:20;;;;;;;5.35;4.45;;;14.10;99.90;;;;;;5070000;28;20227;-72
2021/10/27 11:52:50;;;;;;;6.85;3.83;;;14.10;99.90;;;;;;5069740;28;20293;-72
2021/10/27 11:55:18;;;;;;;4.40;4.00;;;14.40;99.90;;;;;;5070111;28;20251;-72
2021/10/27 11:57:51;;;;;;;3.75;3.35;;;14.70;99.90;;;;;;5070120;28;20204;-72
2021/10/27 12:00:29;;;;;;;3.90;3.22;;;14.70;99.90;;;;;;5069868;28;20702;-72
2021/10/27 12:03:00;;;;;;;4.15;3.30;;;14.80;99.90;;;;;;5069804;28;20191;-72
2021/10/27 12:05:33;;;;;;;5.00;3.50;;;14.90;99.90;;;;;;5069705;28;20729;-72
2021/10/27 12:11:02;;;;;;;3.50;2.50;;;14.80;99.90;;;;;;5064041;28;20217;-72
2021/10/27 12:13:43;;;;;;;2.22;2.00;;;14.70;99.90;;;;;;5069651;28;20212;-72
2021/10/27 12:16:28;;;;;;;2.65;2.05;;;14.70;99.90;;;;;;5069473;28;20246;-72
2021/10/27 12:18:56;;;;;;;1.45;1.35;;;14.70;99.90;;;;;;5065507;28;20264;-72
2021/10/27 12:21:24;;;;;;;1.63;1.50;;;14.70;99.90;;;;;;5056048;28;20227;-72
2021/10/27 12:23:51;;;;;;;1.55;1.20;;;14.90;99.90;;;;;;5056225;28;20701;-72
2021/10/27 12:26:19;;;;;;;2.58;1.45;;;15.20;99.90;;;;;;5056204;28;20213;-72
2021/10/27 12:28:51;;;;;;;1.02;0.90;;;15.80;99.90;;;;;;5056121;28;20231;-72
2021/10/27 12:31:20;;;;;;;1.00;0.90;;;16.40;99.90;;;;;;5056026;28;20232;-72
2021/10/27 12:33:47;;;;;;;0.80;0.80;;;16.80;99.90;;;;;;5056166;28;20207;-73
2021/10/27 12:36:17;;;;;;;1.10;1.00;;;17.30;99.90;;;;;;5055987;28;20657;-73
2021/10/27 12:39:11;;;;;;;1.48;1.38;;;17.50;99.90;;;;;;5055812;28;20205;-73
2021/10/27 12:41:38;;;;;;;1.20;1.20;;;17.70;98.30;;;;;;5055538;28;20241;-72
2021/10/27 12:44:22;;;;;;;2.28;1.65;;;17.60;97.80;;;;;;5055966;28;20207;-72
2021/10/27 12:47:06;;;;;;;2.00;1.58;;;17.40;98.90;;;;;;5054536;28;20207;-72
2021/10/27 12:49:33;;;;;;;2.58;2.22;;;17.20;99.70;;;;;;5055743;28;20348;-72
2021/10/27 12:52:19;;;;;;;2.30;2.10;;;16.90;99.90;;;;;;5055667;28;20297;-72
2021/10/27 12:54:46;;;;;;;2.65;2.40;;;16.60;99.90;;;;;;5055672;28;20687;-72
2021/10/27 12:57:13;;;;;;;3.83;3.15;;;16.40;99.90;;;;;;5055566;28;20743;-72
2021/10/27 12:59:44;;;;;;;4.10;3.45;;;16.20;99.90;;;;;;5055485;28;20211;-72
2021/10/27 13:02:18;;;;;;;3.88;3.22;;;16.00;99.90;;;;;;5055451;28;20222;-72
2021/10/27 13:04:53;;;;;;;3.90;2.78;;;16.00;99.90;;;;;;5055517;28;20263;-72
2021/10/27 13:07:22;;;;;;;3.92;3.10;;;15.80;99.90;;;;;;5055264;28;20241;-73
2021/10/27 13:18:27;;;;;;;4.70;3.20;;;15.70;99.90;;;;;;5049785;28;20561;-73
2021/10/27 13:21:12;;;;;;;3.08;2.78;;;15.70;99.90;;;;;;5055109;28;20268;-73
2021/10/27 13:31:52;;;;;;;3.88;3.25;;;15.50;99.90;;;;;;5053685;28;20713;-73
2021/10/27 13:34:20;;;;;;;4.00;3.40;;;15.50;99.90;;;;;;5054999;28;20674;-72
2021/10/27 13:36:47;;;;;;;4.10;3.22;;;15.50;99.90;;;;;;5054919;28;20209;-73
2021/10/27 13:39:14;;;;;;;3.03;2.72;;;15.50;99.90;;;;;;5054889;28;20294;-73
2021/10/27 13:41:43;;;;;;;3.42;2.78;;;15.50;99.90;;;;;;5054334;28;20755;-72
2021/10/27 13:44:14;;;;;;;3.20;2.90;;;15.50;99.90;;;;;;5054791;28;20203;-72
2021/10/27 13:47:03;;;;;;;2.80;2.60;;;15.60;99.90;;;;;;5054791;28;20207;-73
2021/10/27 13:57:52;;;;;;;3.90;2.90;;;15.50;99.90;;;;;;5054585;28;20200;-72
2021/10/27 14:06:01;;;;;;;2.60;2.40;;;15.60;99.90;;;;;;5054445;28;20204;-72
2021/10/27 14:08:33;;;;;;;2.60;2.40;;;15.70;99.90;;;;;;5054131;28;20233;-72
2021/10/27 14:11:05;;;;;;;3.15;2.60;;;15.80;99.90;;;;;;5054155;28;20281;-72
2021/10/27 14:13:42;;;;;;;5.43;3.15;;;15.90;99.90;;;;;;5054161;28;20665;-73
2021/10/27 14:16:48;;;;;;;3.00;2.80;;;16.00;99.90;;;;;;5054154;28;20664;-73
2021/10/27 14:19:31;;;;;;;5.13;3.25;;;16.00;99.90;;;;;;5054218;28;20652;-72
2021/10/27 14:39:17;;;;;;;3.28;2.65;;;15.80;99.90;;;;;;5053932;28;20694;-73
2021/10/27 14:50:46;;;;;;;2.15;2.03;;;15.60;99.90;;;;;;5038258;28;20316;-73
2021/10/27 14:59:12;;;;;;;2.08;1.98;;;15.80;99.90;;;;;;5053643;28;20229;-73
2021/10/27 15:21:15;;;;;;;5.32;2.95;;;15.70;99.90;;;;;;5053176;28;20583;-72
2021/10/27 15:23:58;;;;;;;4.72;2.33;;;15.70;99.90;;;;;;5053393;28;20210;-72
2021/10/27 15:29:32;;;;;;;3.20;2.60;;;15.60;99.90;;;;;;5053271;28;20223;-73
2021/10/27 15:35:07;;;;;;;2.40;2.15;;;15.50;99.90;;;;;;4992073;28;20203;-73
2021/10/27 15:43:17;;;;;;;3.10;2.80;;;15.10;99.90;;;;;;5042632;28;20667;-72
2021/10/27 15:51:19;;;;;;;3.45;2.67;;;14.80;99.90;;;;;;5027229;28;20581;-72
2021/10/27 15:53:46;;;;;;;3.15;2.30;;;14.70;99.90;;;;;;5053662;28;20562;-72
2021/10/27 15:56:13;;;;;;;3.67;2.58;;;14.60;99.90;;;;;;5057027;28;20209;-72
2021/10/27 15:58:40;;;;;;;7.25;3.67;;;14.50;99.90;;;;;;5056808;28;20291;-72
2021/10/27 16:01:08;;;;;;;2.97;2.40;;;14.40;99.90;;;;;;5056479;28;20714;-72
2021/10/27 16:03:35;;;;;;;2.08;1.88;;;14.30;99.90;;;;;;5056778;28;20295;-72
2021/10/27 16:06:02;;;;;;;3.85;2.60;;;14.20;99.90;;;;;;5056714;28;20237;-73
2021/10/27 16:08:30;;;;;;;2.33;2.13;;;14.10;99.90;;;;;;5056319;28;20223;-72
2021/10/27 16:10:59;;;;;;;3.13;2.15;;;14.20;99.90;;;;;;5056345;28;20231;-72
2021/10/27 16:13:26;;;;;;;3.42;2.70;;;14.10;99.90;;;;;;5056548;28;20261;-72
2021/10/27 16:15:56;;;;;;;2.13;1.92;;;13.90;99.90;;;;;;5056314;28;20290;-72
2021/10/27 16:18:25;;;;;;;2.95;2.13;;;13.90;99.90;;;;;;5056343;28;20200;-72
2021/10/27 16:20:52;;;;;;;3.25;2.20;;;13.70;99.90;;;;;;5056354;28;20262;-72
2021/10/27 16:23:20;;;;;;;3.15;2.63;;;13.60;99.90;;;;;;5056103;28;20203;-72
2021/10/27 16:25:48;;;;;;;8.80;4.97;;;13.50;99.90;;;;;;5056314;28;20602;-72
2021/10/27 16:28:15;;;;;;;5.25;3.38;;;13.40;99.90;;;;;;5056171;28;20306;-72
2021/10/27 16:30:42;;;;;;;5.18;3.20;;;13.30;99.90;;;;;;5056021;28;20261;-72
2021/10/27 16:33:09;;;;;;;3.35;3.03;;;13.30;99.90;;;;;;5055998;28;20572;-72